Time;durP1;ratioP1;P1;durP2;ratioP2;P2;SDS_P1;SDS_P2;PMS_P1;PMS_P2;Temp;Humidity;BMP_temperature;BMP_pressure;BME280_temperature;BME280_humidity;BME280_pressure;Samples;Min_cycle;Max_cycle;Signal;HPM_P1;HPM_P2
2023/11/13 00:01:15;;;;;;;36.90;27.00;;;;;;;4.74;100.00;98467.73;109659;1251;63996;-74
2023/11/13 00:03:45;;;;;;;;;;;;;;;4.76;100.00;98466.38;109656;1250;60128;-72
2023/11/13 00:06:13;;;;;;;33.40;23.50;;;;;;;4.77;100.00;98463.86;109654;1250;59733;-76
2023/11/13 00:08:39;;;;;;;33.40;24.20;;;;;;;4.78;100.00;98461.86;109680;1251;68300;-76
2023/11/13 00:11:06;;;;;;;27.70;21.60;;;;;;;4.79;100.00;98461.48;108954;1251;1002133;-76
2023/11/13 00:13:33;;;;;;;29.20;22.00;;;;;;;4.78;100.00;98462.59;109679;1251;64073;-77
2023/11/13 00:15:59;;;;;;;33.10;22.80;;;;;;;4.78;100.00;98464.35;109634;1251;59768;-72
2023/11/13 00:18:27;;;;;;;39.60;25.10;;;;;;;4.78;100.00;98462.22;109655;1251;59680;-71
2023/11/13 00:20:53;;;;;;;34.30;23.70;;;;;;;4.78;100.00;98462.05;109711;1250;66831;-71
2023/11/13 00:23:19;;;;;;;39.00;28.40;;;;;;;4.77;100.00;98466.01;109668;1251;59813;-71
2023/11/13 00:25:46;;;;;;;35.40;25.10;;;;;;;4.77;100.00;98466.16;109682;1251;62708;-71
2023/11/13 00:28:13;;;;;;;33.00;25.10;;;;;;;4.78;100.00;98467.69;109665;1250;59757;-71
2023/11/13 00:30:40;;;;;;;31.80;23.70;;;;;;;4.78;100.00;98470.65;109684;1250;59712;-71
2023/11/13 00:33:08;;;;;;;30.20;22.10;;;;;;;4.79;100.00;98467.65;109472;1251;65847;-71
2023/11/13 00:35:35;;;;;;;31.70;23.00;;;;;;;4.79;100.00;98470.09;109695;1251;59812;-71
2023/11/13 00:38:01;;;;;;;29.60;22.90;;;;;;;4.81;100.00;98474.76;109712;1250;63766;-71
2023/11/13 00:40:28;;;;;;;30.60;23.00;;;;;;;4.82;100.00;98477.66;109680;1251;59901;-71
2023/11/13 00:42:55;;;;;;;28.60;21.00;;;;;;;4.84;100.00;98481.66;109620;1250;59836;-71
2023/11/13 00:45:21;;;;;;;26.00;20.20;;;;;;;4.85;100.00;98483.38;109700;1251;66546;-71
2023/11/13 00:47:48;;;;;;;27.90;20.70;;;;;;;4.86;100.00;98485.24;109735;1250;61448;-71
2023/11/13 00:50:14;;;;;;;29.20;21.80;;;;;;;4.86;100.00;98480.33;109326;1251;63800;-71
2023/11/13 00:52:41;;;;;;;32.70;20.80;;;;;;;4.87;100.00;98478.48;109634;1250;59723;-71
2023/11/13 00:55:09;;;;;;;27.50;20.40;;;;;;;4.89;100.00;98482.97;109678;1251;60654;-71
2023/11/13 00:57:35;;;;;;;26.30;21.30;;;;;;;4.90;100.00;98481.88;109668;1251;65678;-71
2023/11/13 01:00:04;;;;;;;30.20;20.90;;;;;;;4.90;100.00;98483.11;109659;1251;59986;-71
2023/11/13 01:02:32;;;;;;;23.60;18.10;;;;;;;4.90;100.00;98491.56;109345;1251;63820;-71
2023/11/13 01:04:58;;;;;;;27.30;19.20;;;;;;;4.90;100.00;98492.80;109537;1251;59764;-71
2023/11/13 01:07:26;;;;;;;22.00;16.60;;;;;;;4.90;100.00;98495.58;109566;1251;59807;-71
2023/11/13 01:09:52;;;;;;;21.30;15.10;;;;;;;4.92;100.00;98496.35;109317;1251;65705;-71
2023/11/13 01:12:20;;;;;;;18.40;13.90;;;;;;;4.94;100.00;98494.85;109544;1255;59794;-71
2023/11/13 01:14:46;;;;;;;16.70;12.40;;;;;;;4.96;100.00;98494.91;109507;1255;64050;-71
2023/11/13 01:17:13;;;;;;;15.20;11.60;;;;;;;4.98;100.00;98493.23;109505;1251;59765;-70
2023/11/13 01:19:40;;;;;;;15.60;11.00;;;;;;;5.01;100.00;98496.09;109592;1251;59880;-70
2023/11/13 01:22:06;;;;;;;11.90;8.60;;;;;;;5.03;100.00;98499.52;109528;1251;66852;-70
2023/11/13 01:24:33;;;;;;;11.60;7.30;;;;;;;5.06;100.00;98500.58;109574;1251;60121;-70
2023/11/13 01:27:00;;;;;;;10.70;7.70;;;;;;;5.10;100.00;98501.61;109570;1251;65261;-70
2023/11/13 01:29:27;;;;;;;10.20;7.30;;;;;;;5.13;100.00;98494.04;109524;1251;59787;-70
2023/11/13 01:31:53;;;;;;;7.80;6.90;;;;;;;5.16;100.00;98493.87;109517;1251;59798;-70
2023/11/13 01:34:20;;;;;;;7.60;5.70;;;;;;;5.16;100.00;98492.64;109530;1251;60096;-70
2023/11/13 01:36:47;;;;;;;9.30;6.00;;;;;;;5.16;100.00;98487.03;109569;1251;59992;-70
2023/11/13 01:39:13;;;;;;;8.50;6.50;;;;;;;5.16;100.00;98488.05;109379;1251;64693;-70
2023/11/13 01:41:42;;;;;;;7.60;6.10;;;;;;;5.16;100.00;98485.06;109497;1251;59980;-70
2023/11/13 01:44:09;;;;;;;7.60;6.20;;;;;;;5.16;100.00;98482.96;109541;1251;59875;-70
2023/11/13 01:46:36;;;;;;;8.30;5.90;;;;;;;5.15;100.00;98481.96;109539;1251;65616;-70
2023/11/13 01:49:04;;;;;;;8.30;6.00;;;;;;;5.14;100.00;98481.66;109421;1251;59848;-70
2023/11/13 01:51:32;;;;;;;6.50;5.80;;;;;;;5.13;100.00;98481.55;109548;1251;62421;-70
2023/11/13 01:53:59;;;;;;;12.10;7.10;;;;;;;5.11;100.00;98479.17;109521;1254;59879;-70
2023/11/13 01:56:27;;;;;;;11.60;8.40;;;;;;;5.09;100.00;98481.94;109545;1251;59812;-70
2023/11/13 01:58:56;;;;;;;9.40;7.80;;;;;;;5.08;100.00;98480.38;109528;1251;66078;-70
2023/11/13 02:01:25;;;;;;;12.50;8.10;;;;;;;5.08;100.00;98483.94;109511;1251;61188;-69
2023/11/13 02:03:52;;;;;;;11.10;8.30;;;;;;;5.07;100.00;98490.12;109624;1251;63738;-70
2023/11/13 02:06:20;;;;;;;14.10;9.90;;;;;;;5.06;100.00;98492.46;109684;1250;59820;-70
2023/11/13 02:08:47;;;;;;;13.40;9.90;;;;;;;5.05;100.00;98493.75;109670;1253;59978;-70
2023/11/13 02:11:15;;;;;;;13.70;10.30;;;;;;;5.04;100.00;98492.05;109696;1250;66996;-70
2023/11/13 02:13:43;;;;;;;13.10;9.50;;;;;;;5.03;100.00;98496.48;109700;1250;60005;-70
2023/11/13 02:16:12;;;;;;;14.30;10.70;;;;;;;5.03;100.00;98496.66;109674;1251;63873;-70
2023/11/13 02:18:39;;;;;;;12.10;10.50;;;;;;;5.03;100.00;98496.34;109661;1251;59818;-70
2023/11/13 02:21:06;;;;;;;14.10;10.30;;;;;;;5.02;100.00;98494.05;109693;1251;59721;-70
2023/11/13 02:23:32;;;;;;;13.70;10.30;;;;;;;5.02;100.00;98495.83;109670;1251;65309;-70
2023/11/13 02:26:06;;;;;;;11.70;9.80;;;;;;;5.02;100.00;98502.17;109679;1251;59802;-70
2023/11/13 02:28:33;;;;;;;15.30;10.70;;;;;;;5.01;100.00;98501.55;109695;1251;64117;-71
2023/11/13 02:30:59;;;;;;;13.20;10.80;;;;;;;5.00;100.00;98498.91;109675;1250;59802;-72
2023/11/13 02:33:26;;;;;;;10.00;8.00;;;;;;;5.01;100.00;98499.40;109671;1251;59777;-70
2023/11/13 02:35:52;;;;;;;11.00;8.70;;;;;;;5.02;100.00;98501.65;109670;1251;66777;-70
2023/11/13 02:38:19;;;;;;;11.10;8.60;;;;;;;5.01;100.00;98496.93;109724;1251;59966;-70
2023/11/13 02:40:45;;;;;;;9.20;8.30;;;;;;;5.00;100.00;98494.00;109654;1250;64037;-70
2023/11/13 02:43:12;;;;;;;9.50;7.80;;;;;;;4.98;100.00;98495.35;109255;1249;59762;-70
2023/11/13 02:45:40;;;;;;;11.00;7.30;;;;;;;4.96;100.00;98493.69;109678;1250;59829;-70
2023/11/13 02:48:06;;;;;;;9.00;7.50;;;;;;;4.95;100.00;98497.11;109566;1251;66893;-70
2023/11/13 02:50:33;;;;;;;8.80;7.70;;;;;;;4.94;100.00;98504.53;109692;1251;60220;-71
2023/11/13 02:53:00;;;;;;;16.40;9.90;;;;;;;4.94;100.00;98510.34;109651;1250;63836;-71
2023/11/13 02:55:26;;;;;;;13.60;10.80;;;;;;;4.93;100.00;98508.83;109715;1250;59791;-70
2023/11/13 02:57:54;;;;;;;13.60;10.40;;;;;;;4.93;100.00;98510.95;109689;1249;59903;-70
2023/11/13 03:00:33;;;;;;;15.30;10.00;;;;;;;4.92;100.00;98511.33;109676;1249;65238;-70
2023/11/13 03:03:00;;;;;;;14.10;9.80;;;;;;;4.92;100.00;98515.41;109676;1250;59981;-70
2023/11/13 03:05:27;;;;;;;12.30;10.00;;;;;;;4.92;100.00;98517.52;109696;1251;62668;-70
2023/11/13 03:07:54;;;;;;;12.50;9.00;;;;;;;4.91;100.00;98518.97;109674;1251;59749;-70
2023/11/13 03:10:20;;;;;;;10.90;8.20;;;;;;;4.90;100.00;98516.88;109691;1251;59772;-70
2023/11/13 03:12:47;;;;;;;9.80;6.50;;;;;;;4.91;100.00;98511.91;109713;1251;65385;-71
2023/11/13 03:15:14;;;;;;;10.70;6.60;;;;;;;4.94;100.00;98514.94;109678;1250;59780;-70
2023/11/13 03:17:40;;;;;;;10.50;7.70;;;;;;;4.97;100.00;98516.72;109708;1250;64142;-70
2023/11/13 03:20:07;;;;;;;10.10;7.40;;;;;;;4.98;100.00;98516.66;109649;1250;59839;-71
2023/11/13 03:22:34;;;;;;;9.10;7.00;;;;;;;4.98;100.00;98508.58;109696;1250;59808;-70
2023/11/13 03:25:01;;;;;;;9.70;7.10;;;;;;;4.99;100.00;98504.82;109656;1251;65397;-71
2023/11/13 03:27:27;;;;;;;12.80;8.00;;;;;;;5.00;100.00;98502.45;109632;1250;59801;-71
2023/11/13 03:29:54;;;;;;;25.10;10.30;;;;;;;5.02;100.00;98503.06;109672;1250;62894;-71
2023/11/13 03:32:20;;;;;;;17.60;9.60;;;;;;;5.04;100.00;98506.82;109697;1250;60180;-71
2023/11/13 03:34:47;;;;;;;14.10;8.60;;;;;;;5.06;100.00;98503.40;109716;1250;59661;-71
2023/11/13 03:37:14;;;;;;;20.20;8.10;;;;;;;5.06;100.00;98501.60;109661;1250;65672;-71
2023/11/13 03:39:40;;;;;;;14.30;8.80;;;;;;;5.05;100.00;98503.23;109459;1251;61318;-71
2023/11/13 03:42:09;;;;;;;15.60;7.70;;;;;;;5.05;100.00;98503.10;109694;1250;64056;-71
2023/11/13 03:44:35;;;;;;;18.70;9.60;;;;;;;5.04;100.00;98502.06;109677;1250;59800;-71
2023/11/13 03:47:02;;;;;;;23.10;10.20;;;;;;;5.03;100.00;98504.22;109696;1250;60074;-71
2023/11/13 03:49:28;;;;;;;23.20;10.90;;;;;;;5.01;100.00;98503.79;109680;1251;67855;-71
2023/11/13 03:51:55;;;;;;;25.10;10.30;;;;;;;5.01;100.00;98504.19;109731;1250;59797;-71
2023/11/13 03:54:22;;;;;;;18.50;10.00;;;;;;;5.01;100.00;98506.30;109654;1249;63757;-71
2023/11/13 03:56:49;;;;;;;18.50;9.50;;;;;;;5.01;100.00;98503.98;109655;1251;59899;-71
2023/11/13 03:59:15;;;;;;;16.40;9.30;;;;;;;5.02;100.00;98503.77;109426;1251;59987;-71
2023/11/13 04:01:45;;;;;;;13.60;9.10;;;;;;;5.00;100.00;98496.63;109716;1251;65425;-71
2023/11/13 04:04:11;;;;;;;15.70;9.30;;;;;;;4.99;100.00;98495.83;109687;1249;59917;-71
2023/11/13 04:06:38;;;;;;;13.30;8.90;;;;;;;4.98;100.00;98492.91;109675;1250;65003;-71
2023/11/13 04:09:06;;;;;;;12.50;8.70;;;;;;;4.98;100.00;98495.37;109656;1251;59801;-71
2023/11/13 04:11:33;;;;;;;10.70;8.90;;;;;;;4.97;100.00;98496.27;109668;1250;59676;-71
2023/11/13 04:13:59;;;;;;;13.90;9.50;;;;;;;4.97;100.00;98496.83;109673;1250;67781;-71
2023/11/13 04:16:26;;;;;;;9.60;8.60;;;;;;;4.96;100.00;98495.48;109732;1250;61785;-71
2023/11/13 04:18:53;;;;;;;11.70;9.70;;;;;;;4.94;100.00;98496.64;109680;1249;65184;-70
2023/11/13 04:21:19;;;;;;;13.20;10.90;;;;;;;4.91;100.00;98501.16;109355;1249;59787;-70
2023/11/13 04:23:46;;;;;;;14.70;11.80;;;;;;;4.89;100.00;98496.17;109768;1249;59852;-71
2023/11/13 04:26:12;;;;;;;14.70;11.20;;;;;;;4.86;100.00;98485.94;109682;1250;60160;-70
2023/11/13 04:28:39;;;;;;;14.50;11.40;;;;;;;4.85;100.00;98486.00;109671;1250;59754;-71
2023/11/13 04:31:05;;;;;;;11.20;9.70;;;;;;;4.83;100.00;98489.75;109685;1250;64102;-71
2023/11/13 04:33:32;;;;;;;13.20;11.00;;;;;;;4.82;100.00;98493.01;109633;1249;59828;-70
2023/11/13 04:36:01;;;;;;;13.40;10.40;;;;;;;4.81;100.00;98492.88;109649;1250;59795;-71
2023/11/13 04:38:27;;;;;;;11.10;9.80;;;;;;;4.79;100.00;98489.11;109636;1250;66986;-70
2023/11/13 04:40:54;;;;;;;12.90;9.70;;;;;;;4.77;100.00;98490.08;109709;1250;59822;-71
2023/11/13 04:43:21;;;;;;;15.00;11.80;;;;;;;4.76;100.00;98490.68;109670;1250;62928;-71
2023/11/13 04:45:47;;;;;;;11.90;10.70;;;;;;;4.75;100.00;98486.51;109694;1250;59847;-71
2023/11/13 04:48:14;;;;;;;12.40;11.00;;;;;;;4.74;100.00;98489.53;109667;1250;60915;-71
2023/11/13 04:50:40;;;;;;;12.70;10.60;;;;;;;4.73;100.00;98489.27;109667;1250;60115;-71
2023/11/13 04:53:07;;;;;;;15.20;12.90;;;;;;;4.72;100.00;98488.58;109718;1250;69270;-71
2023/11/13 04:55:33;;;;;;;16.60;13.40;;;;;;;4.70;100.00;98490.42;109674;1250;59784;-70
2023/11/13 04:58:01;;;;;;;15.90;12.60;;;;;;;4.70;100.00;98498.38;109704;1250;59819;-70
2023/11/13 05:00:28;;;;;;;13.10;10.60;;;;;;;4.69;100.00;98505.30;109730;1249;59651;-71
2023/11/13 05:02:55;;;;;;;16.00;11.60;;;;;;;4.69;100.00;98504.95;109713;1249;65326;-71
2023/11/13 05:05:23;;;;;;;12.60;10.80;;;;;;;4.69;100.00;98510.92;109664;1249;61258;-71
2023/11/13 05:07:50;;;;;;;13.00;10.70;;;;;;;4.69;100.00;98516.21;109673;1250;63779;-70
2023/11/13 05:10:17;;;;;;;14.10;10.80;;;;;;;4.69;100.00;98516.55;109675;1250;59734;-70
2023/11/13 05:12:44;;;;;;;12.50;10.60;;;;;;;4.68;100.00;98508.88;109706;1250;59940;-70
2023/11/13 05:15:14;;;;;;;14.70;11.30;;;;;;;4.67;100.00;98506.46;109400;1250;66772;-70
2023/11/13 05:17:40;;;;;;;11.00;9.90;;;;;;;4.67;100.00;98507.14;109702;1250;60124;-71
2023/11/13 05:20:07;;;;;;;13.00;11.50;;;;;;;4.67;100.00;98509.25;109654;1251;62512;-71
2023/11/13 05:22:34;;;;;;;17.80;12.60;;;;;;;4.67;100.00;98510.30;109659;1250;59867;-71
2023/11/13 05:25:01;;;;;;;17.00;13.10;;;;;;;4.67;100.00;98511.39;109555;1250;59716;-71
2023/11/13 05:27:27;;;;;;;17.30;13.30;;;;;;;4.66;100.00;98516.00;109685;1250;66482;-71
2023/11/13 05:29:54;;;;;;;15.30;13.60;;;;;;;4.65;100.00;98519.38;109658;1250;60759;-71
2023/11/13 05:32:20;;;;;;;18.50;13.20;;;;;;;4.66;100.00;98518.84;109666;1250;63858;-71
2023/11/13 05:34:48;;;;;;;16.30;12.90;;;;;;;4.66;100.00;98512.64;109719;1250;59769;-71
2023/11/13 05:37:15;;;;;;;16.40;12.40;;;;;;;4.67;100.00;98514.02;109685;1250;59737;-71
2023/11/13 05:39:41;;;;;;;18.70;13.90;;;;;;;4.68;100.00;98516.08;109652;1249;65410;-70
2023/11/13 05:42:08;;;;;;;17.30;13.50;;;;;;;4.69;100.00;98518.83;109668;1250;61827;-71
2023/11/13 05:44:36;;;;;;;17.20;13.00;;;;;;;4.69;100.00;98519.39;109661;1250;63797;-71
2023/11/13 05:47:03;;;;;;;13.70;10.90;;;;;;;4.71;100.00;98528.05;109710;1250;59802;-71
2023/11/13 05:49:30;;;;;;;14.00;10.60;;;;;;;4.73;100.00;98532.17;109704;1250;59965;-71
2023/11/13 05:51:57;;;;;;;12.20;10.90;;;;;;;4.74;100.00;98534.79;109649;1250;65741;-71
2023/11/13 05:54:24;;;;;;;14.80;11.30;;;;;;;4.75;100.00;98535.08;109698;1250;68692;-71
2023/11/13 05:56:51;;;;;;;12.90;11.20;;;;;;;4.75;100.00;98538.79;109686;1250;63823;-70
2023/11/13 05:59:18;;;;;;;16.50;12.00;;;;;;;4.76;100.00;98541.88;109609;1249;60003;-71
2023/11/13 06:01:44;;;;;;;17.10;12.20;;;;;;;4.77;100.00;98538.32;109665;1250;59826;-70
2023/11/13 06:04:11;;;;;;;14.60;12.00;;;;;;;4.78;100.00;98536.32;109672;1250;65757;-70
2023/11/13 06:06:37;;;;;;;15.00;12.20;;;;;;;4.80;100.00;98538.16;109695;1250;61171;-70
2023/11/13 06:09:04;;;;;;;15.40;12.40;;;;;;;4.80;100.00;98536.20;109652;1250;65284;-70
2023/11/13 06:11:31;;;;;;;17.40;12.50;;;;;;;4.83;100.00;98533.80;109643;1250;60055;-70
2023/11/13 06:13:57;;;;;;;15.30;12.60;;;;;;;4.86;100.00;98538.75;109742;1249;59669;-70
2023/11/13 06:16:24;;;;;;;17.40;13.30;;;;;;;4.87;100.00;98545.39;109688;1249;65787;-70
2023/11/13 06:18:52;;;;;;;16.40;13.40;;;;;;;4.89;100.00;98553.38;109673;1250;61435;-70
2023/11/13 06:21:19;;;;;;;18.60;13.60;;;;;;;4.90;100.00;98556.49;109652;1250;64023;-70
2023/11/13 06:23:46;;;;;;;20.90;13.90;;;;;;;4.91;100.00;98561.37;109685;1250;59909;-70
2023/11/13 06:26:13;;;;;;;18.50;14.10;;;;;;;4.93;100.00;98556.52;109715;1249;59656;-70
2023/11/13 06:28:40;;;;;;;18.50;14.50;;;;;;;4.96;100.00;98557.22;109396;1251;67008;-71
2023/11/13 06:31:10;;;;;;;19.80;14.50;;;;;;;4.99;100.00;98560.75;109668;1250;60829;-70
2023/11/13 06:33:37;;;;;;;23.80;16.20;;;;;;;5.03;100.00;98565.36;109700;1249;62868;-71
2023/11/13 06:36:10;;;;;;;20.80;14.70;;;;;;;5.05;100.00;98571.22;109654;1249;59893;-71
2023/11/13 06:38:37;;;;;;;20.20;14.40;;;;;;;5.06;100.00;98576.44;109713;1250;60050;-71
2023/11/13 06:41:04;;;;;;;17.30;13.00;;;;;;;5.08;100.00;98585.52;109662;1251;66652;-71
2023/11/13 06:43:32;;;;;;;17.60;12.00;;;;;;;5.09;100.00;98592.32;109723;1250;59935;-71
2023/11/13 06:45:59;;;;;;;16.20;10.90;;;;;;;5.12;100.00;98595.16;108131;1250;1002454;-71
2023/11/13 06:48:26;;;;;;;15.90;11.50;;;;;;;5.16;100.00;98599.55;109349;1249;59799;-71
2023/11/13 06:50:52;;;;;;;16.00;12.40;;;;;;;5.18;100.00;98598.70;109699;1250;59844;-71
2023/11/13 06:53:19;;;;;;;17.30;12.70;;;;;;;5.21;100.00;98594.01;109710;1250;59738;-71
2023/11/13 06:55:46;;;;;;;18.30;12.30;;;;;;;5.25;100.00;98592.20;109522;1251;59782;-71
2023/11/13 06:58:12;;;;;;;16.80;14.00;;;;;;;5.30;100.00;98594.62;109670;1250;64113;-71
2023/11/13 07:00:39;;;;;;;19.00;13.70;;;;;;;5.34;100.00;98597.92;109694;1249;59795;-71
2023/11/13 07:03:05;;;;;;;15.70;12.20;;;;;;;5.39;100.00;98593.94;109692;1249;59697;-71
2023/11/13 07:05:32;;;;;;;11.80;10.20;;;;;;;5.47;100.00;98593.52;109648;1253;75677;-71
2023/11/13 07:07:59;;;;;;;12.50;10.00;;;;;;;5.52;100.00;98591.50;109684;1250;60097;-71
2023/11/13 07:10:26;;;;;;;13.70;9.50;;;;;;;5.58;100.00;98591.02;109682;1250;63979;-71
2023/11/13 07:12:53;;;;;;;10.30;8.60;;;;;;;5.64;100.00;98586.64;109670;1249;59739;-71
2023/11/13 07:15:19;;;;;;;12.10;8.30;;;;;;;5.70;100.00;98584.00;109337;1250;59799;-71
2023/11/13 07:17:46;;;;;;;9.80;8.80;;;;;;;5.77;100.00;98584.19;109734;1249;65509;-71
2023/11/13 07:20:13;;;;;;;9.90;8.30;;;;;;;5.82;100.00;98588.48;109693;1250;60039;-71
2023/11/13 07:22:40;;;;;;;13.50;7.70;;;;;;;5.88;100.00;98585.16;109651;1249;64142;-71
2023/11/13 07:25:07;;;;;;;10.10;8.10;;;;;;;5.93;100.00;98592.33;109636;1250;60110;-71
2023/11/13 07:27:34;;;;;;;9.60;7.60;;;;;;;5.98;100.00;98601.23;109673;1250;59776;-71
2023/11/13 07:30:01;;;;;;;10.40;8.10;;;;;;;6.02;100.00;98600.83;109691;1250;66583;-71
2023/11/13 07:32:27;;;;;;;7.90;7.10;;;;;;;6.06;100.00;98606.98;109647;1250;59831;-71
2023/11/13 07:34:54;;;;;;;7.70;7.00;;;;;;;6.11;100.00;98607.94;109523;1250;62521;-70
2023/11/13 07:37:23;;;;;;;7.60;6.10;;;;;;;6.15;100.00;98614.05;109714;1250;60088;-71
2023/11/13 07:39:53;;;;;;;10.70;7.10;;;;;;;6.18;100.00;98620.79;109678;1250;59733;-71
2023/11/13 07:42:20;;;;;;;10.20;7.30;;;;;;;6.21;100.00;98620.26;109693;1249;67731;-71
2023/11/13 07:44:50;;;;;;;8.30;7.10;;;;;;;6.25;100.00;98618.45;109690;1250;59887;-71
2023/11/13 07:47:18;;;;;;;9.20;7.10;;;;;;;6.29;100.00;98618.23;109666;1250;65003;-71
2023/11/13 07:49:45;;;;;;;10.30;6.50;;;;;;;6.34;100.00;98623.42;109657;1250;59795;-71
2023/11/13 07:52:13;;;;;;;8.00;6.90;;;;;;;6.38;100.00;98626.88;109733;1249;60638;-71
2023/11/13 07:54:40;;;;;;;10.30;7.00;;;;;;;6.40;100.00;98632.27;109692;1250;67769;-71
2023/11/13 07:57:10;;;;;;;7.50;6.10;;;;;;;6.43;100.00;98634.20;109689;1250;60287;-71
2023/11/13 07:59:37;;;;;;;9.40;6.50;;;;;;;6.48;100.00;98636.92;109688;1250;62973;-71
2023/11/13 08:02:04;;;;;;;7.60;5.80;;;;;;;6.55;100.00;98639.90;109509;1249;60131;-71
2023/11/13 08:04:31;;;;;;;8.70;6.30;;;;;;;6.61;100.00;98640.08;109675;1249;59694;-71
2023/11/13 08:06:59;;;;;;;6.90;5.50;;;;;;;6.69;100.00;98633.13;109656;1250;66809;-71
2023/11/13 08:09:26;;;;;;;5.70;5.00;;;;;;;6.78;100.00;98633.13;109676;1250;60961;-71
2023/11/13 08:11:52;;;;;;;5.40;4.30;;;;;;;6.85;100.00;98635.02;109689;1249;59820;-71
2023/11/13 08:14:21;;;;;;;5.30;4.40;;;;;;;6.90;100.00;98629.80;109663;1249;59808;-71
2023/11/13 08:16:47;;;;;;;5.00;4.30;;;;;;;6.95;100.00;98623.64;109671;1249;59850;-71
2023/11/13 08:19:14;;;;;;;5.70;4.30;;;;;;;6.96;100.00;98622.51;109662;1250;68104;-71
2023/11/13 08:21:43;;;;;;;5.40;4.70;;;;;;;6.99;100.00;98623.59;109835;1249;59865;-72
2023/11/13 08:24:11;;;;;;;5.30;4.50;;;;;;;6.99;100.00;98620.91;109785;1249;64180;-72
2023/11/13 08:26:38;;;;;;;5.10;4.40;;;;;;;7.01;100.00;98615.33;109833;1250;59932;-70
2023/11/13 08:29:08;;;;;;;4.70;4.00;;;;;;;7.09;100.00;98609.22;109845;1249;60001;-71
2023/11/13 08:31:34;;;;;;;;;;;;;;;7.17;100.00;98609.96;109851;1249;66683;-71
2023/11/13 08:34:01;;;;;;;6.70;4.50;;;;;;;7.22;100.00;98607.58;109840;1250;59776;-71
2023/11/13 08:36:28;;;;;;;5.70;4.00;;;;;;;7.32;100.00;98606.98;109806;1249;60102;-71
2023/11/13 08:38:54;;;;;;;8.30;4.50;;;;;;;7.44;100.00;98608.02;109816;1249;60227;-71
2023/11/13 08:41:21;;;;;;;5.80;4.80;;;;;;;7.54;100.00;98610.63;109829;1250;59879;-71
2023/11/13 08:43:48;;;;;;;5.20;3.90;;;;;;;7.67;100.00;98608.77;109856;1250;65750;-71
2023/11/13 08:46:15;;;;;;;6.90;4.20;;;;;;;7.75;100.00;98607.91;109870;1250;59861;-71
2023/11/13 08:48:41;;;;;;;5.70;4.70;;;;;;;7.81;100.00;98603.98;109832;1249;62881;-71
2023/11/13 08:51:08;;;;;;;6.80;4.40;;;;;;;7.87;100.00;98605.41;109549;1250;59791;-71
2023/11/13 08:53:42;;;;;;;5.30;4.40;;;;;;;7.89;100.00;98600.30;109816;1249;60132;-71
2023/11/13 08:56:15;;;;;;;6.30;5.00;;;;;;;7.90;100.00;98603.09;109819;1249;66930;-70
2023/11/13 08:58:42;;;;;;;6.70;4.70;;;;;;;7.87;100.00;98602.20;109872;1250;60089;-70
2023/11/13 09:01:11;;;;;;;7.20;4.50;;;;;;;7.86;100.00;98602.47;109799;1249;65486;-71
2023/11/13 09:03:39;;;;;;;5.90;4.80;;;;;;;7.86;100.00;98599.98;109859;1249;59741;-71
2023/11/13 09:06:08;;;;;;;5.60;5.00;;;;;;;7.84;100.00;98593.75;109860;1250;59692;-72
2023/11/13 09:08:36;;;;;;;5.80;5.20;;;;;;;7.85;100.00;98594.21;109305;1249;155830;-72
2023/11/13 09:11:04;;;;;;;6.20;5.20;;;;;;;7.90;100.00;98593.34;109839;1249;60798;-71
2023/11/13 09:13:31;;;;;;;7.70;5.70;;;;;;;7.94;100.00;98593.09;109841;1250;64514;-71
2023/11/13 09:15:59;;;;;;;6.90;5.40;;;;;;;8.02;100.00;98593.16;109810;1250;60138;-71
2023/11/13 09:18:26;;;;;;;7.00;5.50;;;;;;;8.09;100.00;98591.41;109491;1249;59824;-70
2023/11/13 09:20:54;;;;;;;6.50;5.40;;;;;;;8.18;100.00;98590.72;109812;1250;65323;-70
2023/11/13 09:23:21;;;;;;;7.20;5.80;;;;;;;8.26;100.00;98591.61;109862;1250;59825;-70
2023/11/13 09:25:48;;;;;;;6.30;5.60;;;;;;;8.29;100.00;98595.32;109812;1250;64751;-70
2023/11/13 09:28:15;;;;;;;8.30;5.50;;;;;;;8.25;100.00;98598.04;109791;1249;59856;-71
2023/11/13 09:30:42;;;;;;;8.00;5.40;;;;;;;8.23;100.00;98599.63;109848;1249;59812;-70
2023/11/13 09:33:10;;;;;;;6.90;5.00;;;;;;;8.23;100.00;98599.98;109852;1249;67782;-72
2023/11/13 09:35:37;;;;;;;6.20;5.20;;;;;;;8.18;100.00;98598.17;109878;1250;59801;-70
2023/11/13 09:38:08;;;;;;;6.70;5.10;;;;;;;8.15;100.00;98596.73;109831;1249;64046;-70
2023/11/13 09:40:35;;;;;;;5.90;5.00;;;;;;;8.17;100.00;98594.20;109535;1249;60006;-70
2023/11/13 09:43:07;;;;;;;8.20;5.50;;;;;;;8.22;100.00;98592.27;109873;1249;59960;-70
2023/11/13 09:45:45;;;;;;;6.10;5.40;;;;;;;8.32;100.00;98590.71;109850;1250;66847;-70
2023/11/13 09:48:18;;;;;;;5.90;5.30;;;;;;;8.47;100.00;98592.91;109834;1250;59870;-71
2023/11/13 09:50:45;;;;;;;7.40;5.70;;;;;;;8.62;100.00;98587.95;109830;1249;63744;-71
2023/11/13 09:53:17;;;;;;;7.80;5.50;;;;;;;8.73;100.00;98588.41;109817;1250;59760;-71
2023/11/13 09:55:46;;;;;;;6.50;4.80;;;;;;;8.84;100.00;98579.90;109868;1249;60224;-71
2023/11/13 09:58:13;;;;;;;6.40;5.20;;;;;;;8.92;100.00;98580.44;109899;1249;66059;-71
2023/11/13 10:00:40;;;;;;;6.80;5.00;;;;;;;8.95;100.00;98580.56;109872;1250;61146;-71
2023/11/13 10:03:14;;;;;;;5.30;4.10;;;;;;;9.00;100.00;98573.36;109826;1249;62887;-71
2023/11/13 10:05:42;;;;;;;6.00;3.80;;;;;;;9.08;100.00;98564.86;109816;1249;59915;-72
2023/11/13 10:08:09;;;;;;;4.80;3.80;;;;;;;9.12;100.00;98563.30;109854;1249;59779;-72
2023/11/13 10:10:39;;;;;;;4.20;3.80;;;;;;;9.15;100.00;98557.11;109871;1250;75731;-71
2023/11/13 10:13:10;;;;;;;4.40;3.90;;;;;;;9.20;100.00;98559.55;109829;1250;59777;-71
2023/11/13 10:15:41;;;;;;;4.10;3.50;;;;;;;9.26;100.00;98559.02;109548;1250;63930;-71
2023/11/13 10:18:08;;;;;;;4.80;3.60;;;;;;;9.24;100.00;98555.43;109417;1250;59840;-72
2023/11/13 10:20:45;;;;;;;5.90;3.90;;;;;;;9.12;100.00;98555.57;109889;1250;60021;-71
2023/11/13 10:23:14;;;;;;;5.70;3.90;;;;;;;8.98;100.00;98555.05;109577;1250;67071;-72
2023/11/13 10:25:52;;;;;;;4.70;3.60;;;;;;;8.95;100.00;98558.11;109822;1249;59886;-71
2023/11/13 10:28:23;;;;;;;5.70;3.70;;;;;;;8.96;100.00;98561.02;109842;1249;62904;-70
2023/11/13 10:31:00;;;;;;;5.80;3.70;;;;;;;9.03;100.00;98560.95;109463;1249;59924;-71
2023/11/13 10:33:28;;;;;;;3.30;2.60;;;;;;;9.08;100.00;98554.73;109871;1250;59841;-70
2023/11/13 10:36:04;;;;;;;3.50;2.40;;;;;;;9.09;100.00;98553.77;109866;1249;66543;-70
2023/11/13 10:38:47;;;;;;;3.50;3.00;;;;;;;9.08;100.00;98553.33;109882;1249;59875;-70
2023/11/13 10:41:21;;;;;;;4.40;2.30;;;;;;;9.09;100.00;98550.05;109854;1250;62407;-70
2023/11/13 10:43:47;;;;;;;5.30;2.70;;;;;;;9.12;100.00;98547.54;109815;1250;60014;-71
2023/11/13 10:46:36;;;;;;;5.00;2.80;;;;;;;9.26;100.00;98543.77;109851;1249;59847;-70
2023/11/13 10:49:03;;;;;;;3.70;2.30;;;;;;;9.38;100.00;98545.42;109849;1251;66831;-69
2023/11/13 10:51:30;;;;;;;3.50;2.10;;;;;;;9.50;100.00;98544.04;109850;1250;60096;-70
2023/11/13 10:53:59;;;;;;;2.70;1.60;;;;;;;9.56;100.00;98550.15;109786;1250;64165;-71
2023/11/13 10:56:26;;;;;;;2.80;1.40;;;;;;;9.56;100.00;98553.03;109823;1249;59906;-71
2023/11/13 10:58:53;;;;;;;2.50;1.30;;;;;;;9.50;100.00;98554.73;109906;1250;60177;-70
2023/11/13 11:01:25;;;;;;;3.20;1.30;;;;;;;9.49;100.00;98555.99;109816;1250;68022;-71
2023/11/13 11:03:52;;;;;;;1.80;1.20;;;;;;;9.48;100.00;98551.81;109810;1250;69542;-69
2023/11/13 11:06:22;;;;;;;1.70;1.50;;;;;;;9.48;100.00;98549.73;109827;1249;64078;-69
2023/11/13 11:08:50;;;;;;;2.50;2.30;;;;;;;9.49;100.00;98549.46;109804;1250;60180;-70
2023/11/13 11:11:22;;;;;;;2.90;1.30;;;;;;;9.49;100.00;98544.54;109840;1249;59920;-69
2023/11/13 11:13:56;;;;;;;1.80;1.10;;;;;;;9.46;100.00;98546.08;109897;1249;68171;-69
2023/11/13 11:16:30;;;;;;;2.40;1.20;;;;;;;9.42;100.00;98543.72;109444;1250;59864;-70
2023/11/13 11:19:13;;;;;;;2.80;1.40;;;;;;;9.39;100.00;98541.44;109887;1249;65185;-71